Radiosonde details



Informationen :

Serial : X3123389
Type : RS41-SGE
Frequency : 404.000MHz
Launchsite : Keflavikurflugvollur
Nearest town : Þorlákshöfn, IS (14.4km)

Altitude (Max) : 26282m at 2026-09-01 12:25:35
Speed (Max) : 69km/h at altitude 10621m

Average speed : 35km/h
Average ascent rate : 5m/s
Average descent rate : -14m/s
Ascent rate (Max) : 10.6m/s
Descent rate (Max): -24.2m/s

First frame :
DL9RDZ-2 at 2026-09-01 11:06:55 at altitude 785m (OG: 743m)
Last frame :
DL9RDZ-1 at 2026-09-01 12:52:44 at altitude 1024m (OG: 982m)

Flighttime : 1h45m49s
Ascent time : 1h18m40s
Descent time : 27m9s
Uptime : -
Killtimer : 8h03m

Distance (Straight line distance): 54km

Distance (Route):


Frames : 482


Measurement :

Temperature : 2.6°C
Humidity : 85.0%
Pressure : 0hPa


Vertical profile (SkewT) :


Elevation profile :



Receiving stations :


Receiver Frames First received Last received
DL9RDZ-1 482 2026-09-01 11:06:55 2026-09-01 12:52:44

Share per receiver :



All frames :


Receiver Date Latitude Longitude Direction Speed Altitude Climb Temperature Humidity Pressure Voltage Killtimer Uptime BKT XDATA
DL9RDZ-12026-09-01 12:52:4463.97269-21.5115659°7km/h1024m-10.2m/s2.6°C85.0%0hPa0V08:03:0000:00:0000:00:00
DL9RDZ-12026-09-01 12:52:3363.97268-21.51184118°4km/h1131m-10.2m/s1.6°C92.2%0hPa0V08:03:0000:00:0000:00:00
DL9RDZ-12026-09-01 12:52:2263.97269-21.5121276°5km/h1238m-10.5m/s0.7°C94.7%0hPa0V08:03:0000:00:0000:00:00
DL9RDZ-12026-09-01 12:52:1163.97266-21.5125377°5km/h1344m-10.5m/s-0.3°C96.0%0hPa0V08:04:0000:00:0000:00:00
DL9RDZ-12026-09-01 12:52:0063.97262-21.5128654°5km/h1446m-9.4m/s-0.9°C98.2%0hPa0V08:04:0000:00:0000:00:00
DL9RDZ-12026-09-01 12:51:5063.97253-21.5133366°11km/h1540m-10.8m/s-0.8°C75.6%0hPa0V08:04:0000:00:0000:00:00
DL9RDZ-12026-09-01 12:51:3963.97243-21.5138958°5km/h1642m-10.6m/s-1.0°C67.6%0hPa0V08:04:0000:00:0000:00:00
DL9RDZ-12026-09-01 12:51:2963.97234-21.5141637°7km/h1738m-11.1m/s-1.7°C68.6%0hPa0V08:04:0000:00:0000:00:00
DL9RDZ-12026-09-01 12:51:1963.97225-21.5144160°5km/h1835m-10.3m/s-2.1°C59.8%0hPa0V08:05:0000:00:0000:00:00
DL9RDZ-12026-09-01 12:51:0863.97214-21.5147343°9km/h1947m-11.8m/s-3.0°C59.8%0hPa0V08:05:0000:00:0000:00:00
DL9RDZ-12026-09-01 12:50:5863.97202-21.5150749°9km/h2043m-9.3m/s-3.8°C62.5%0hPa0V08:05:0000:00:0000:00:00
DL9RDZ-12026-09-01 12:50:4763.97187-21.5156281°11km/h2153m-10.9m/s-4.7°C67.8%0hPa0V08:05:0000:00:0000:00:00
DL9RDZ-12026-09-01 12:50:3763.97178-21.5161668°7km/h2248m-10.9m/s-5.5°C67.2%0hPa0V08:06:0000:00:0000:00:00
DL9RDZ-12026-09-01 12:50:2663.97175-21.5166796°7km/h2359m-9.5m/s-5.6°C39.2%0hPa0V08:06:0000:00:0000:00:00
DL9RDZ-12026-09-01 12:50:1663.97179-21.51723102°9km/h2458m-10.3m/s-6.0°C25.4%0hPa0V08:06:0000:00:0000:00:00
DL9RDZ-12026-09-01 12:50:0763.97183-21.51784106°11km/h2552m-10.4m/s-6.5°C41.3%0hPa0V08:06:0000:00:0000:00:00
DL9RDZ-12026-09-01 12:49:5663.97191-21.51849118°11km/h2651m-10.1m/s-7.0°C35.8%0hPa0V08:06:0000:00:0000:00:00
DL9RDZ-12026-09-01 12:49:4563.97205-21.51918108°13km/h2767m-12.3m/s-7.7°C34.1%0hPa0V08:07:0000:00:0000:00:00
DL9RDZ-12026-09-01 12:49:3463.97221-21.51990119°11km/h2885m-11.2m/s-8.3°C32.1%0hPa0V08:07:0000:00:0000:00:00
DL9RDZ-12026-09-01 12:49:2463.97236-21.52059122°13km/h2987m-10.4m/s-9.0°C39.1%0hPa0V08:07:0000:00:0000:00:00
DL9RDZ-12026-09-01 12:49:1363.97249-21.52134119°13km/h3103m-11.2m/s-9.8°C44.5%0hPa0V08:07:0000:00:0000:00:00
DL9RDZ-12026-09-01 12:49:0263.97265-21.52215117°16km/h3215m-11.2m/s-10.3°C54.6%0hPa0V08:07:0000:00:0000:00:00
DL9RDZ-12026-09-01 12:48:5163.97285-21.52308115°16km/h3332m-11.8m/s-10.8°C25.5%0hPa0V08:08:0000:00:0000:00:00
DL9RDZ-12026-09-01 12:48:4163.97303-21.52389112°15km/h3438m-11.2m/s-11.2°C27.0%0hPa0V08:08:0000:00:0000:00:00
DL9RDZ-12026-09-01 12:48:3063.97328-21.52477129°16km/h3553m-11.4m/s-12.0°C53.4%0hPa0V08:08:0000:00:0000:00:00
DL9RDZ-12026-09-01 12:48:2063.97361-21.52550140°15km/h3672m-11.8m/s-12.8°C58.4%0hPa0V08:08:0000:00:0000:00:00
DL9RDZ-12026-09-01 12:48:0863.97390-21.52619142°16km/h3795m-11.2m/s-13.5°C57.4%0hPa0V08:08:0000:00:0000:00:00
DL9RDZ-12026-09-01 12:47:5863.97417-21.52680135°15km/h3904m-11.1m/s-14.2°C58.3%0hPa0V08:08:0000:00:0000:00:00
DL9RDZ-12026-09-01 12:47:4763.97447-21.52750126°15km/h4023m-11.8m/s-14.7°C54.4%0hPa0V08:08:0000:00:0000:00:00
DL9RDZ-12026-09-01 12:47:3663.97469-21.52823120°13km/h4143m-11.9m/s-15.4°C26.7%0hPa0V08:08:0000:00:0000:00:00
DL9RDZ-12026-09-01 12:47:1663.97510-21.52960119°18km/h4363m-11.6m/s-16.7°C54.6%0hPa0V08:08:0000:00:0000:00:00
DL9RDZ-12026-09-01 12:47:0563.97541-21.53060133°24km/h4483m-11.9m/s-17.1°C56.8%0hPa0V08:09:0000:00:0000:00:00
DL9RDZ-12026-09-01 12:46:5463.97578-21.53176126°20km/h4607m-12.0m/s-17.8°C60.2%0hPa0V08:09:0000:00:0000:00:00
DL9RDZ-12026-09-01 12:46:4363.97612-21.53308117°24km/h4730m-12.9m/s-18.3°C58.9%0hPa0V08:09:0000:00:0000:00:00
DL9RDZ-12026-09-01 12:46:3363.97643-21.53436123°26km/h4840m-10.9m/s-18.9°C61.4%0hPa0V08:09:0000:00:0000:00:00
DL9RDZ-12026-09-01 12:46:1263.97729-21.53706125°29km/h5071m-11.6m/s-19.9°C57.8%0hPa0V08:10:0000:00:0000:00:00
DL9RDZ-12026-09-01 12:46:0163.97780-21.53872127°31km/h5192m-11.2m/s-20.7°C63.0%0hPa0V08:10:0000:00:0000:00:00
DL9RDZ-12026-09-01 12:45:5163.97830-21.54021132°33km/h5301m-11.1m/s-21.6°C67.0%0hPa0V08:10:0000:00:0000:00:00
DL9RDZ-12026-09-01 12:45:4163.97885-21.54185119°33km/h5427m-11.7m/s-22.3°C66.8%0hPa0V08:10:0000:00:0000:00:00
DL9RDZ-12026-09-01 12:45:3063.97927-21.54360117°37km/h5537m-12.8m/s-23.1°C68.4%0hPa0V08:11:0000:00:0000:00:00
DL9RDZ-12026-09-01 12:45:2063.97961-21.54564111°37km/h5651m-12.6m/s-23.7°C73.4%0hPa0V08:11:0000:00:0000:00:00
DL9RDZ-12026-09-01 12:45:1063.97988-21.54775103°38km/h5762m-12.2m/s-24.6°C74.0%0hPa0V08:11:0000:00:0000:00:00
DL9RDZ-12026-09-01 12:44:5963.98016-21.55019106°40km/h5884m-11.7m/s-25.2°C69.8%0hPa0V08:11:0000:00:0000:00:00
DL9RDZ-12026-09-01 12:44:4863.98045-21.55264105°37km/h6008m-11.4m/s-26.2°C71.2%0hPa0V08:11:0000:00:0000:00:00
DL9RDZ-12026-09-01 12:44:3763.98064-21.5550697°42km/h6127m-12.2m/s-26.9°C67.5%0hPa0V08:12:0000:00:0000:00:00
DL9RDZ-12026-09-01 12:44:2663.98076-21.5576598°44km/h6251m-12.7m/s-27.5°C63.8%0hPa0V08:12:0000:00:0000:00:00
DL9RDZ-12026-09-01 12:44:1563.98087-21.5603394°40km/h6378m-11.7m/s-28.5°C65.2%0hPa0V08:12:0000:00:0000:00:00
DL9RDZ-12026-09-01 12:44:0563.98095-21.5626696°42km/h6496m-12.8m/s-29.5°C69.1%0hPa0V08:12:0000:00:0000:00:00
DL9RDZ-12026-09-01 12:43:5563.98103-21.5650195°42km/h6612m-11.2m/s-30.5°C71.3%0hPa0V08:12:0000:00:0000:00:00
DL9RDZ-12026-09-01 12:43:4563.98113-21.5674193°42km/h6726m-12.8m/s-31.5°C71.3%0hPa0V08:13:0000:00:0000:00:00
DL9RDZ-12026-09-01 12:43:3463.98122-21.5700497°42km/h6860m-13.7m/s-32.6°C73.1%0hPa0V08:13:0000:00:0000:00:00
DL9RDZ-12026-09-01 12:43:1963.98132-21.5734499°40km/h7044m-13.7m/s-34.0°C72.6%0hPa0V08:13:0000:00:0000:00:00
DL9RDZ-12026-09-01 12:43:0863.98136-21.5760294°42km/h7180m-13.3m/s-35.0°C69.8%0hPa0V08:13:0000:00:0000:00:00
DL9RDZ-12026-09-01 12:42:5863.98140-21.5783895°44km/h7307m-13.0m/s-36.1°C73.2%0hPa0V08:14:0000:00:0000:00:00
DL9RDZ-12026-09-01 12:42:4863.98150-21.5808396°40km/h7429m-14.2m/s-37.1°C73.0%0hPa0V08:14:0000:00:0000:00:00
DL9RDZ-12026-09-01 12:42:3763.98165-21.5835597°42km/h7576m-14.1m/s-38.2°C74.4%0hPa0V08:14:0000:00:0000:00:00
DL9RDZ-12026-09-01 12:42:2763.98182-21.58603103°42km/h7705m-12.4m/s-39.1°C77.4%0hPa0V08:14:0000:00:0000:00:00
DL9RDZ-12026-09-01 12:42:1763.98208-21.58845105°42km/h7827m-14.1m/s-39.8°C72.6%0hPa0V08:14:0000:00:0000:00:00
DL9RDZ-12026-09-01 12:42:0663.98243-21.59108108°42km/h7971m-12.0m/s-40.8°C72.1%0hPa0V08:14:0000:00:0000:00:00
DL9RDZ-12026-09-01 12:41:5563.98286-21.59369112°46km/h8121m-13.9m/s-41.7°C66.5%0hPa0V08:14:0000:00:0000:00:00
DL9RDZ-12026-09-01 12:41:4563.98327-21.59619112°44km/h8256m-13.5m/s-42.6°C62.7%0hPa0V08:14:0000:00:0000:00:00
DL9RDZ-12026-09-01 12:41:3463.98377-21.59905113°49km/h8402m-14.1m/s-43.8°C63.9%0hPa0V08:14:0000:00:0000:00:00
DL9RDZ-12026-09-01 12:41:1263.98475-21.60515111°51km/h8708m-16.2m/s-46.2°C59.5%0hPa0V08:15:0000:00:0000:00:00
DL9RDZ-12026-09-01 12:41:0163.98519-21.60830111°53km/h8868m-13.7m/s-47.6°C61.2%0hPa0V08:15:0000:00:0000:00:00
DL9RDZ-12026-09-01 12:40:5063.98567-21.61160110°57km/h9026m-15.3m/s-48.8°C61.2%0hPa0V08:15:0000:00:0000:00:00
DL9RDZ-12026-09-01 12:40:3963.98617-21.61498114°58km/h9185m-14.2m/s-49.8°C53.2%0hPa0V08:15:0000:00:0000:00:00
DL9RDZ-12026-09-01 12:40:2863.98675-21.61847110°58km/h9340m-14.3m/s-50.8°C53.6%0hPa0V08:15:0000:00:0000:00:00
DL9RDZ-12026-09-01 12:40:1763.98734-21.62206113°60km/h9498m-15.5m/s-52.0°C55.8%0hPa0V08:16:0000:00:0000:00:00
DL9RDZ-12026-09-01 12:40:0763.98791-21.62537114°66km/h9662m-18.0m/s-53.2°C59.0%0hPa0V08:16:0000:00:0000:00:00
DL9RDZ-12026-09-01 12:39:5663.98854-21.62906108°64km/h9851m-17.5m/s-54.6°C55.6%0hPa0V08:16:0000:00:0000:00:00
DL9RDZ-12026-09-01 12:39:4663.98900-21.63260107°66km/h10017m-16.9m/s-55.7°C47.0%0hPa0V08:16:0000:00:0000:00:00
DL9RDZ-12026-09-01 12:39:3663.98936-21.63629103°64km/h10170m-13.2m/s-56.5°C44.7%0hPa0V08:16:0000:00:0000:00:00
DL9RDZ-12026-09-01 12:39:2663.98971-21.64028103°66km/h10328m-15.2m/s-57.4°C41.8%0hPa0V08:17:0000:00:0000:00:00
DL9RDZ-12026-09-01 12:39:1563.98997-21.6438899°64km/h10474m-14.3m/s-58.0°C38.0%0hPa0V08:17:0000:00:0000:00:00
DL9RDZ-12026-09-01 12:39:0563.99016-21.6475796°68km/h10621m-15.3m/s-58.7°C34.5%0hPa0V08:17:0000:00:0000:00:00
DL9RDZ-12026-09-01 12:38:5063.99044-21.6528394°57km/h10857m-17.2m/s-58.6°C24.9%0hPa0V08:17:0000:00:0000:00:00
DL9RDZ-12026-09-01 12:38:4063.99049-21.6561193°60km/h11006m-14.7m/s-57.8°C13.2%0hPa0V08:18:0000:00:0000:00:00
DL9RDZ-12026-09-01 12:38:2963.99063-21.6598298°55km/h11165m-14.6m/s-53.4°C4.8%0hPa0V08:18:0000:00:0000:00:00
DL9RDZ-12026-09-01 12:38:1863.99080-21.6630394°47km/h11336m-15.2m/s-52.6°C3.1%0hPa0V08:18:0000:00:0000:00:00
DL9RDZ-12026-09-01 12:38:0863.99082-21.6655894°42km/h11491m-14.3m/s-50.9°C2.4%0hPa0V08:18:0000:00:0000:00:00
DL9RDZ-12026-09-01 12:37:5763.99080-21.6685890°57km/h11660m-16.5m/s-50.6°C2.0%0hPa0V08:18:0000:00:0000:00:00
DL9RDZ-12026-09-01 12:37:4663.99093-21.6718998°47km/h11839m-15.7m/s-49.3°C1.6%0hPa0V08:19:0000:00:0000:00:00
DL9RDZ-12026-09-01 12:37:3663.99108-21.6746899°44km/h12020m-15.8m/s-49.1°C1.5%0hPa0V08:19:0000:00:0000:00:00
DL9RDZ-12026-09-01 12:37:2363.99118-21.6777399°44km/h12206m-16.9m/s-48.8°C1.5%0hPa0V08:19:0000:00:0000:00:00
DL9RDZ-12026-09-01 12:37:0963.99111-21.6813892°49km/h12446m-18.4m/s-48.1°C1.3%0hPa0V08:19:0000:00:0000:00:00
DL9RDZ-12026-09-01 12:36:5963.99115-21.6841092°46km/h12622m-16.4m/s-47.6°C1.3%0hPa0V08:19:0000:00:0000:00:00
DL9RDZ-12026-09-01 12:36:4863.99105-21.6870384°53km/h12793m-15.9m/s-46.9°C1.2%0hPa0V08:19:0000:00:0000:00:00
DL9RDZ-12026-09-01 12:36:3863.99091-21.6899087°49km/h12956m-17.4m/s-46.7°C1.2%0hPa0V08:19:0000:00:0000:00:00
DL9RDZ-12026-09-01 12:36:2463.99073-21.6937783°46km/h13185m-15.5m/s-45.9°C1.1%0hPa0V08:19:0000:00:0000:00:00
DL9RDZ-12026-09-01 12:36:1463.99055-21.6965482°51km/h13340m-15.8m/s-46.2°C1.1%0hPa0V08:19:0000:00:0000:00:00
DL9RDZ-12026-09-01 12:36:0463.99041-21.6995183°46km/h13513m-17.7m/s-45.8°C1.0%0hPa0V08:20:0000:00:0000:00:00
DL9RDZ-12026-09-01 12:35:5363.99026-21.7019785°38km/h13689m-17.1m/s-46.0°C1.0%0hPa0V08:20:0000:00:0000:00:00
DL9RDZ-12026-09-01 12:35:4363.99012-21.7042384°46km/h13855m-16.6m/s-46.5°C1.1%0hPa0V08:20:0000:00:0000:00:00
DL9RDZ-12026-09-01 12:35:3363.99012-21.7066494°37km/h14022m-18.5m/s-46.7°C1.1%0hPa0V08:20:0000:00:0000:00:00
DL9RDZ-12026-09-01 12:35:2363.99014-21.7085685°33km/h14193m-18.0m/s-46.7°C1.1%0hPa0V08:20:0000:00:0000:00:00
DL9RDZ-12026-09-01 12:35:1263.98986-21.7107473°42km/h14382m-20.4m/s-46.7°C1.0%0hPa0V08:21:0000:00:0000:00:00
DL9RDZ-12026-09-01 12:35:0263.98968-21.7134092°49km/h14565m-17.9m/s-46.6°C1.1%0hPa0V08:21:0000:00:0000:00:00
DL9RDZ-12026-09-01 12:34:5163.98977-21.7161090°37km/h14765m-19.2m/s-46.7°C1.1%0hPa0V08:21:0000:00:0000:00:00
DL9RDZ-12026-09-01 12:34:4063.98964-21.7184481°38km/h14954m-16.8m/s-46.3°C1.0%0hPa0V08:21:0000:00:0000:00:00
DL9RDZ-12026-09-01 12:34:1463.98919-21.7231169°33km/h15435m-20.1m/s-46.7°C1.0%0hPa0V08:22:0000:00:0000:00:00
DL9RDZ-12026-09-01 12:34:0463.98888-21.7250676°42km/h15622m-17.9m/s-47.2°C1.0%0hPa0V08:22:0000:00:0000:00:00
DL9RDZ-12026-09-01 12:33:5363.98877-21.7279095°44km/h15812m-17.6m/s-46.3°C1.0%0hPa0V08:22:0000:00:0000:00:00
DL9RDZ-12026-09-01 12:33:4363.98896-21.73029101°29km/h16016m-18.7m/s-46.4°C1.0%0hPa0V08:22:0000:00:0000:00:00
DL9RDZ-12026-09-01 12:33:3263.98889-21.7320977°37km/h16215m-19.2m/s-46.5°C0.9%0hPa0V08:23:0000:00:0000:00:00
DL9RDZ-12026-09-01 12:33:1363.98858-21.7354974°31km/h16547m-20.6m/s-46.7°C1.0%0hPa0V08:23:0000:00:0000:00:00
DL9RDZ-12026-09-01 12:33:0263.98834-21.7368141°22km/h16757m-18.7m/s-45.5°C0.9%0hPa0V08:23:0000:00:0000:00:00
DL9RDZ-12026-09-01 12:32:5263.98775-21.7378947°33km/h16940m-19.6m/s-45.8°C0.9%0hPa0V08:23:0000:00:0000:00:00
DL9RDZ-12026-09-01 12:32:4263.98722-21.7396664°33km/h17140m-16.9m/s-46.9°C0.9%0hPa0V00:00:0000:00:0000:00:00
DL9RDZ-12026-09-01 12:31:4463.98573-21.7490254°31km/h18187m-17.8m/s-46.7°C0.9%0hPa0V00:00:0000:00:0000:00:00
DL9RDZ-12026-09-01 12:31:3363.98527-21.7511771°40km/h18395m-19.4m/s-46.7°C0.9%0hPa0V00:00:0000:00:0000:00:00
DL9RDZ-12026-09-01 12:31:1363.98492-21.7548684°27km/h18768m-21.7m/s-46.7°C0.9%0hPa0V00:00:0000:00:0000:00:00
DL9RDZ-12026-09-01 12:30:5763.98492-21.7573276°24km/h19089m-22.7m/s-47.8°C1.0%0hPa0V00:00:0000:00:0000:00:00
DL9RDZ-12026-09-01 12:30:4863.98476-21.7582151°15km/h19284m-20.9m/s-47.2°C0.9%0hPa0V00:00:0000:00:0000:00:00
DL9RDZ-12026-09-01 12:30:3663.98443-21.7591256°22km/h19536m-21.3m/s-47.2°C0.9%0hPa0V00:00:0000:00:0000:00:00
DL9RDZ-12026-09-01 12:29:1763.98162-21.7683868°33km/h21167m-22.0m/s-47.6°C0.9%0hPa0V00:00:0000:00:0000:00:00
DL9RDZ-12026-09-01 12:29:0063.98125-21.7718989°33km/h21536m-20.7m/s-47.8°C0.9%0hPa0V00:00:0000:00:0000:00:00
DL9RDZ-12026-09-01 12:27:5763.97921-21.7785774°27km/h22925m-23.0m/s-48.1°C0.9%0hPa0V00:00:0000:00:0000:00:00
DL9RDZ-12026-09-01 12:27:4663.97890-21.7799752°22km/h23168m-24.2m/s-47.4°C0.8%0hPa0V00:00:0000:00:0000:00:00
DL9RDZ-12026-09-01 12:25:4763.97392-21.79059334°11km/h26157m-12.9m/s-46.6°C0.8%0hPa0V00:00:0000:00:0000:00:00
DL9RDZ-12026-09-01 12:25:3563.97346-21.7908437°18km/h26282m6.9m/s-46.3°C0.8%0hPa0V00:00:0000:00:0000:00:00
DL9RDZ-12026-09-01 12:25:2563.97297-21.79108348°22km/h26213m7.0m/s-46.3°C0.8%0hPa0V00:00:0000:00:0000:00:00
DL9RDZ-12026-09-01 12:23:3063.97158-21.8003235°31km/h25470m5.6m/s-46.7°C0.9%0hPa0V00:00:0000:00:0000:00:00
DL9RDZ-12026-09-01 12:19:5863.96070-21.8197936°18km/h24153m5.8m/s-45.9°C0.8%0hPa0V00:00:0000:00:0000:00:00
DL9RDZ-12026-09-01 12:19:4363.95996-21.8212443°31km/h24057m4.8m/s-46.4°C0.8%0hPa0V00:00:0000:00:0000:00:00
DL9RDZ-12026-09-01 12:19:3263.95938-21.8220016°20km/h23996m5.5m/s-46.8°C0.8%0hPa0V00:00:0000:00:0000:00:00
DL9RDZ-12026-09-01 12:19:2163.95893-21.8227040°20km/h23930m4.7m/s-46.9°C0.9%0hPa0V00:00:0000:00:0000:00:00
DL9RDZ-12026-09-01 12:17:1363.95390-21.8353352°22km/h23155m5.1m/s-47.2°C0.9%0hPa0V00:00:0000:00:0000:00:00
DL9RDZ-12026-09-01 12:17:0063.95344-21.8368366°18km/h23072m6.8m/s-47.3°C0.9%0hPa0V00:00:0000:00:0000:00:00
DL9RDZ-12026-09-01 12:16:4963.95329-21.8380082°27km/h23011m6.3m/s-47.3°C0.9%0hPa0V00:00:0000:00:0000:00:00
DL9RDZ-12026-09-01 12:16:3963.95308-21.8396770°31km/h22947m5.5m/s-47.8°C0.9%0hPa0V00:00:0000:00:0000:00:00
DL9RDZ-12026-09-01 12:16:2863.95279-21.8413476°35km/h22889m6.6m/s-47.9°C1.0%0hPa0V00:00:0000:00:0000:00:00
DL9RDZ-12026-09-01 12:16:1763.95246-21.8431054°26km/h22823m5.9m/s-47.5°C0.9%0hPa0V00:00:0000:00:0000:00:00
DL9RDZ-12026-09-01 12:16:0663.95209-21.8445144°24km/h22757m6.8m/s-47.7°C0.9%0hPa0V00:00:0000:00:0000:00:00
DL9RDZ-12026-09-01 12:15:5663.95152-21.8454239°27km/h22690m5.2m/s-47.9°C1.0%0hPa0V00:00:0000:00:0000:00:00
DL9RDZ-12026-09-01 12:15:4463.95103-21.8462435°22km/h22627m6.0m/s-47.7°C0.9%0hPa0V00:00:0000:00:0000:00:00
DL9RDZ-12026-09-01 12:15:3463.95077-21.8470270°16km/h22569m4.9m/s-47.7°C0.9%0hPa0V00:00:0000:00:0000:00:00
DL9RDZ-12026-09-01 12:15:2463.95056-21.8479291°16km/h22512m5.3m/s-47.5°C1.0%0hPa0V00:00:0000:00:0000:00:00
DL9RDZ-12026-09-01 12:15:1463.95035-21.8492369°26km/h22445m7.7m/s-47.6°C0.9%0hPa0V00:00:0000:00:0000:00:00
DL9RDZ-12026-09-01 12:15:0363.95016-21.8506858°27km/h22385m6.8m/s-47.5°C0.9%0hPa0V00:00:0000:00:0000:00:00
DL9RDZ-12026-09-01 12:14:5263.94981-21.8523260°27km/h22321m6.8m/s-47.8°C1.0%0hPa0V00:00:0000:00:0000:00:00
DL9RDZ-12026-09-01 12:14:4163.94931-21.8543165°42km/h22259m6.1m/s-47.8°C0.9%0hPa0V00:00:0000:00:0000:00:00
DL9RDZ-12026-09-01 12:14:2863.94856-21.8567263°37km/h22181m5.9m/s-47.7°C0.9%0hPa0V00:00:0000:00:0000:00:00
DL9RDZ-12026-09-01 12:13:1263.94555-21.8614794°22km/h21730m5.3m/s-47.9°C1.0%0hPa0V00:00:0000:00:0000:00:00
DL9RDZ-12026-09-01 12:12:3063.94516-21.8685584°40km/h21480m6.2m/s-47.9°C1.0%0hPa0V00:00:0000:00:0000:00:00
DL9RDZ-12026-09-01 12:12:1863.94492-21.8711882°40km/h21415m5.5m/s-47.7°C1.0%0hPa0V00:00:0000:00:0000:00:00
DL9RDZ-12026-09-01 12:11:5663.94430-21.8758374°40km/h21290m5.9m/s-47.5°C1.0%0hPa0V00:00:0000:00:0000:00:00
DL9RDZ-12026-09-01 12:11:4463.94399-21.8780467°31km/h21220m5.4m/s-47.3°C1.0%0hPa0V00:00:0000:00:0000:00:00
DL9RDZ-12026-09-01 12:11:3463.94360-21.8800267°35km/h21157m3.3m/s-47.2°C1.0%0hPa0V00:00:0000:00:0000:00:00
DL9RDZ-12026-09-01 12:10:2363.94115-21.8913656°24km/h20770m5.8m/s-47.6°C1.0%0hPa0V00:00:0000:00:0000:00:00
DL9RDZ-12026-09-01 12:10:1363.94056-21.8927741°27km/h20717m5.8m/s-47.9°C1.0%0hPa0V00:00:0000:00:0000:00:00
DL9RDZ-12026-09-01 12:10:0263.94000-21.8938048°33km/h20658m6.4m/s-48.1°C1.0%0hPa0V00:00:0000:00:0000:00:00
DL9RDZ-12026-09-01 12:09:5163.93954-21.8945837°26km/h20600m5.9m/s-48.3°C1.0%0hPa0V00:00:0000:00:0000:00:00
DL9RDZ-12026-09-01 12:09:4063.93924-21.8953340°16km/h20539m5.9m/s-48.4°C1.0%0hPa0V00:00:0000:00:0000:00:00
DL9RDZ-12026-09-01 12:09:2963.93896-21.89580113°7km/h20480m5.5m/s-48.3°C1.0%0hPa0V00:00:0000:00:0000:00:00
DL9RDZ-12026-09-01 12:09:1863.93900-21.89639111°16km/h20420m6.5m/s-48.3°C1.0%0hPa0V00:00:0000:00:0000:00:00
DL9RDZ-12026-09-01 12:09:0863.93904-21.8972396°16km/h20363m4.1m/s-48.4°C1.1%0hPa0V00:00:0000:00:0000:00:00
DL9RDZ-12026-09-01 12:08:5763.93899-21.8983582°24km/h20305m4.9m/s-48.3°C1.1%0hPa0V00:00:0000:00:0000:00:00
DL9RDZ-12026-09-01 12:08:4763.93886-21.8996077°27km/h20246m3.6m/s-48.2°C1.0%0hPa0V00:00:0000:00:0000:00:00
DL9RDZ-12026-09-01 12:08:3763.93859-21.9009266°29km/h20189m4.1m/s-48.0°C1.0%0hPa0V00:00:0000:00:0000:00:00
DL9RDZ-12026-09-01 12:08:2663.93811-21.9024056°27km/h20126m6.3m/s-48.0°C1.0%0hPa0V00:00:0000:00:0000:00:00
DL9RDZ-12026-09-01 12:08:1863.93750-21.9038845°29km/h20068m4.7m/s-48.2°C1.1%0hPa0V00:00:0000:00:0000:00:00
DL9RDZ-12026-09-01 12:08:0763.93699-21.9049350°29km/h20009m5.2m/s-48.1°C1.1%0hPa0V00:00:0000:00:0000:00:00
DL9RDZ-12026-09-01 12:07:5563.93646-21.9059829°29km/h19944m6.3m/s-47.9°C1.1%0hPa0V00:00:0000:00:0000:00:00
DL9RDZ-12026-09-01 12:07:4563.93590-21.9069029°26km/h19882m6.3m/s-47.7°C1.0%0hPa0V00:00:0000:00:0000:00:00
DL9RDZ-12026-09-01 12:07:3463.93541-21.9076244°22km/h19818m7.0m/s-47.5°C1.1%0hPa0V00:00:0000:00:0000:00:00
DL9RDZ-12026-09-01 12:07:2263.93501-21.9084632°20km/h19754m6.5m/s-47.3°C1.0%0hPa0V00:00:0000:00:0000:00:00
DL9RDZ-12026-09-01 12:07:1163.93459-21.9091542°13km/h19684m5.1m/s-47.1°C1.0%0hPa0V00:00:0000:00:0000:00:00
DL9RDZ-12026-09-01 12:07:0063.93430-21.9098150°24km/h19619m6.6m/s-46.7°C1.0%0hPa0V00:00:0000:00:0000:00:00
DL9RDZ-12026-09-01 12:06:4963.93394-21.9106248°18km/h19555m5.6m/s-46.4°C1.0%0hPa0V00:00:0000:00:0000:00:00
DL9RDZ-12026-09-01 12:06:3763.93359-21.9116668°18km/h19494m3.8m/s-46.4°C1.0%0hPa0V00:00:0000:00:0000:00:00
DL9RDZ-12026-09-01 12:06:2763.93331-21.9125053°22km/h19438m3.9m/s-46.3°C1.0%0hPa0V00:00:0000:00:0000:00:00
DL9RDZ-12026-09-01 12:06:1763.93301-21.9133952°20km/h19383m5.7m/s-46.3°C1.0%0hPa0V00:00:0000:00:0000:00:00
DL9RDZ-12026-09-01 12:06:0763.93267-21.9142056°22km/h19325m5.1m/s-46.7°C1.0%0hPa0V00:00:0000:00:0000:00:00
DL9RDZ-12026-09-01 12:05:5663.93237-21.9149934°18km/h19263m5.9m/s-47.0°C1.0%0hPa0V00:00:0000:00:0000:00:00
DL9RDZ-12026-09-01 12:05:4663.93221-21.9159174°15km/h19207m6.2m/s-47.4°C1.0%0hPa0V00:00:0000:00:0000:00:00
DL9RDZ-12026-09-01 12:05:3663.93202-21.9168278°16km/h19155m5.2m/s-47.4°C1.1%0hPa0V00:00:0000:00:0000:00:00
DL9RDZ-12026-09-01 12:05:2663.93183-21.9177569°26km/h19099m6.5m/s-47.3°C1.1%0hPa0V00:00:0000:00:0000:00:00
DL9RDZ-12026-09-01 12:05:1663.93169-21.9192282°22km/h19040m5.6m/s-47.3°C1.1%0hPa0V00:00:0000:00:0000:00:00
DL9RDZ-12026-09-01 12:05:0463.93177-21.92097108°26km/h18978m4.8m/s-47.1°C1.0%0hPa0V00:00:0000:00:0000:00:00
DL9RDZ-12026-09-01 12:04:5363.93192-21.9226394°31km/h18918m6.5m/s-47.0°C1.1%0hPa0V00:00:0000:00:0000:00:00
DL9RDZ-12026-09-01 12:04:4363.93196-21.9244292°29km/h18867m5.7m/s-46.7°C1.1%0hPa0V00:00:0000:00:0000:00:00
DL9RDZ-12026-09-01 12:04:3363.93194-21.9261284°29km/h18813m5.9m/s-46.4°C1.0%0hPa0V00:00:0000:00:0000:00:00
DL9RDZ-12026-09-01 12:04:2363.93179-21.9280482°35km/h18754m4.9m/s-46.0°C1.0%0hPa0V00:00:0000:00:0000:00:00
DL9RDZ-12026-09-01 12:04:1163.93169-21.9300682°33km/h18698m5.5m/s-45.7°C1.0%0hPa0V00:00:0000:00:0000:00:00
DL9RDZ-12026-09-01 12:04:0063.93152-21.9319475°26km/h18638m5.2m/s-45.6°C1.0%0hPa0V00:00:0000:00:0000:00:00
DL9RDZ-12026-09-01 12:03:4963.93140-21.9336370°24km/h18579m5.4m/s-45.9°C1.0%0hPa0V00:00:0000:00:0000:00:00
DL9RDZ-12026-09-01 12:03:4063.93107-21.9351078°33km/h18525m5.6m/s-46.1°C1.0%0hPa0V00:00:0000:00:0000:00:00
DL9RDZ-12026-09-01 12:03:2863.93082-21.9372464°37km/h18467m5.3m/s-46.2°C1.0%0hPa0V00:00:0000:00:0000:00:00
DL9RDZ-12026-09-01 12:03:1763.93047-21.9395163°42km/h18409m5.5m/s-46.7°C1.0%0hPa0V00:00:0000:00:0000:00:00
DL9RDZ-12026-09-01 12:03:0763.93008-21.9415671°40km/h18356m4.5m/s-46.6°C1.0%0hPa0V00:00:0000:00:0000:00:00
DL9RDZ-12026-09-01 12:02:4663.92899-21.9452150°33km/h18244m6.1m/s-46.9°C1.0%0hPa0V00:00:0000:00:0000:00:00
DL9RDZ-12026-09-01 12:02:3063.92817-21.9470126°18km/h18156m5.2m/s-46.8°C1.0%0hPa0V00:00:0000:00:0000:00:00
DL9RDZ-12026-09-01 12:02:1963.92792-21.9480767°11km/h18097m5.8m/s-46.7°C1.0%0hPa0V00:00:0000:00:0000:00:00
DL9RDZ-12026-09-01 12:02:0963.92790-21.94882102°20km/h18037m4.7m/s-46.9°C1.1%0hPa0V00:00:0000:00:0000:00:00
DL9RDZ-12026-09-01 12:01:5963.92797-21.9499196°16km/h17983m4.3m/s-47.2°C1.0%0hPa0V00:00:0000:00:0000:00:00
DL9RDZ-12026-09-01 12:01:4863.92805-21.9512796°31km/h17930m5.5m/s-47.1°C1.1%0hPa0V00:00:0000:00:0000:00:00
DL9RDZ-12026-09-01 12:01:3863.92812-21.9530989°31km/h17875m5.9m/s-47.1°C1.0%0hPa0V00:00:0000:00:0000:00:00
DL9RDZ-12026-09-01 12:01:2763.92803-21.9552787°38km/h17814m6.1m/s-47.2°C1.1%0hPa0V00:00:0000:00:0000:00:00
DL9RDZ-12026-09-01 12:01:1763.92764-21.9571964°35km/h17759m6.0m/s-47.0°C1.1%0hPa0V00:00:0000:00:0000:00:00
DL9RDZ-12026-09-01 12:01:0663.92735-21.9591868°33km/h17700m4.5m/s-47.1°C1.1%0hPa0V00:00:0000:00:0000:00:00
DL9RDZ-12026-09-01 12:00:5663.92718-21.9607678°24km/h17648m4.8m/s-47.5°C1.1%0hPa0V00:00:0000:00:0000:00:00
DL9RDZ-12026-09-01 12:00:4563.92686-21.9628669°35km/h17588m5.7m/s-47.7°C1.1%0hPa0V00:00:0000:00:0000:00:00
DL9RDZ-12026-09-01 12:00:3663.92651-21.9650561°47km/h17533m4.9m/s-47.7°C1.1%0hPa0V00:00:0000:00:0000:00:00
DL9RDZ-12026-09-01 12:00:1563.92548-21.9690658°31km/h17424m5.6m/s-47.3°C1.1%0hPa0V00:00:0000:00:0000:00:00
DL9RDZ-12026-09-01 12:00:0463.92505-21.9708063°26km/h17368m4.7m/s-47.0°C1.1%0hPa0V00:00:0000:00:0000:00:00
DL9RDZ-12026-09-01 11:59:5263.92472-21.9723073°24km/h17311m4.7m/s-47.0°C1.1%0hPa0V00:00:0000:00:0000:00:00
DL9RDZ-12026-09-01 11:59:4263.92443-21.9739774°31km/h17250m4.3m/s-46.8°C1.1%0hPa0V00:00:0000:00:0000:00:00
DL9RDZ-12026-09-01 11:59:3163.92416-21.9756466°31km/h17192m5.7m/s-46.7°C1.1%0hPa0V00:00:0000:00:0000:00:00
DL9RDZ-12026-09-01 11:59:2063.92392-21.9774872°37km/h17139m5.9m/s-46.4°C1.1%0hPa0V00:00:0000:00:0000:00:00
DL9RDZ-12026-09-01 11:58:5863.92310-21.9811158°29km/h17020m4.7m/s-46.0°C1.0%0hPa0V00:00:0000:00:0000:00:00
DL9RDZ-12026-09-01 11:58:4763.92251-21.9825843°37km/h16961m4.7m/s-46.1°C1.0%0hPa0V00:00:0000:00:0000:00:00
DL9RDZ-12026-09-01 11:58:3763.92204-21.9838244°29km/h16899m4.3m/s-46.5°C1.0%0hPa0V00:00:0000:00:0000:00:00
DL9RDZ-12026-09-01 11:58:2563.92179-21.9849082°20km/h16841m5.8m/s-46.6°C1.1%0hPa0V00:00:0000:00:0000:00:00
DL9RDZ-12026-09-01 11:58:1663.92163-21.9861391°22km/h16789m5.1m/s-46.7°C1.1%0hPa0V00:00:0000:00:0000:00:00
DL9RDZ-12026-09-01 11:58:0563.92157-21.9877085°27km/h16731m5.7m/s-47.0°C1.1%0hPa0V00:00:0000:00:0000:00:00
DL9RDZ-12026-09-01 11:57:5463.92136-21.9894261°31km/h16671m4.9m/s-47.4°C1.2%0hPa0V00:00:0000:00:0000:00:00
DL9RDZ-12026-09-01 11:57:4363.92094-21.9909967°29km/h16609m6.3m/s-47.4°C1.1%0hPa0V00:00:0000:00:0000:00:00
DL9RDZ-12026-09-01 11:57:3363.92072-21.9923573°27km/h16557m4.6m/s-47.2°C1.2%0hPa0V00:00:0000:00:0000:00:00
DL9RDZ-12026-09-01 11:56:5863.92029-21.9985875°46km/h16378m5.4m/s-46.7°C1.1%0hPa0V00:00:0000:00:0000:00:00
DL9RDZ-12026-09-01 11:56:4863.92015-22.0006879°33km/h16323m5.4m/s-46.7°C1.1%0hPa0V00:00:0000:00:0000:00:00
DL9RDZ-12026-09-01 11:56:3763.91991-22.0028180°35km/h16264m4.9m/s-46.7°C1.1%0hPa0V00:00:0000:00:0000:00:00
DL9RDZ-12026-09-01 11:56:2563.91977-22.0045881°29km/h16208m5.2m/s-46.5°C1.2%0hPa0V00:00:0000:00:0000:00:00
DL9RDZ-12026-09-01 11:56:1563.91971-22.0060887°31km/h16157m4.6m/s-46.4°C1.1%0hPa0V00:00:0000:00:0000:00:00
DL9RDZ-12026-09-01 11:56:0563.91970-22.0078296°27km/h16102m4.9m/s-46.2°C1.1%0hPa0V00:00:0000:00:0000:00:00
DL9RDZ-12026-09-01 11:55:5463.91984-22.00955106°37km/h16043m4.1m/s-46.0°C1.1%0hPa0V00:00:0000:00:0000:00:00
DL9RDZ-12026-09-01 11:55:4363.92002-22.0118496°37km/h15985m4.2m/s-45.7°C1.1%0hPa0V00:00:0000:00:0000:00:00
DL9RDZ-12026-09-01 11:55:3263.92019-22.0142791°42km/h15929m6.1m/s-45.7°C1.1%0hPa0V00:00:0000:00:0000:00:00
DL9RDZ-12026-09-01 11:55:2263.92024-22.01669103°46km/h15877m5.4m/s-45.7°C1.1%0hPa0V00:00:0000:00:0000:00:00
DL9RDZ-12026-09-01 11:55:1163.92035-22.0193993°47km/h15826m4.5m/s-45.7°C1.1%0hPa0V00:00:0000:00:0000:00:00
DL9RDZ-12026-09-01 11:55:0163.92037-22.0226489°49km/h15772m6.1m/s-45.9°C1.1%0hPa0V00:00:0000:00:0000:00:00
DL9RDZ-12026-09-01 11:54:4963.92012-22.0257979°53km/h15713m5.7m/s-46.0°C1.1%0hPa0V00:00:0000:00:0000:00:00
DL9RDZ-12026-09-01 11:54:3863.91970-22.0288971°53km/h15654m4.9m/s-46.1°C1.1%0hPa0V00:00:0000:00:0000:00:00
DL9RDZ-12026-09-01 11:54:2763.91940-22.0317277°44km/h15598m4.9m/s-46.3°C1.1%0hPa0V00:00:0000:00:0000:00:00
DL9RDZ-12026-09-01 11:54:1763.91896-22.0341373°42km/h15548m4.2m/s-46.2°C1.1%0hPa0V00:00:0000:00:0000:00:00
DL9RDZ-12026-09-01 11:54:0763.91858-22.0363662°40km/h15492m4.3m/s-46.2°C1.2%0hPa0V00:00:0000:00:0000:00:00
DL9RDZ-12026-09-01 11:53:5663.91831-22.0380568°35km/h15439m6.1m/s-46.2°C1.2%0hPa0V00:00:0000:00:0000:00:00
DL9RDZ-12026-09-01 11:53:4663.91795-22.0397966°29km/h15388m5.5m/s-46.0°C1.2%0hPa0V00:00:0000:00:0000:00:00
DL9RDZ-12026-09-01 11:53:3663.91758-22.0415969°24km/h15328m6.4m/s-45.8°C1.1%0hPa0V00:00:0000:00:0000:00:00
DL9RDZ-12026-09-01 11:53:2463.91727-22.0431363°29km/h15268m5.3m/s-45.7°C1.1%0hPa0V00:00:0000:00:0000:00:00
DL9RDZ-12026-09-01 11:53:1463.91708-22.0446274°31km/h15213m4.2m/s-45.5°C1.1%0hPa0V00:00:0000:00:0000:00:00
DL9RDZ-12026-09-01 11:53:0363.91694-22.0462680°31km/h15155m5.8m/s-45.7°C1.1%0hPa0V00:00:0000:00:0000:00:00
DL9RDZ-12026-09-01 11:52:5263.91678-22.0481271°31km/h15097m4.7m/s-45.9°C1.2%0hPa0V00:00:0000:00:0000:00:00
DL9RDZ-12026-09-01 11:52:4263.91647-22.0500881°37km/h15046m5.1m/s-46.3°C1.2%0hPa0V00:00:0000:00:0000:00:00
DL9RDZ-12026-09-01 11:52:3163.91632-22.0524676°40km/h14989m4.4m/s-46.2°C1.2%0hPa0V00:00:0000:00:0000:00:00
DL9RDZ-12026-09-01 11:52:2063.91600-22.0551974°46km/h14931m5.1m/s-46.2°C1.2%0hPa0V00:00:0000:00:0000:00:00
DL9RDZ-12026-09-01 11:52:1163.91563-22.0577374°35km/h14872m4.6m/s-46.6°C1.3%0hPa0V00:00:0000:00:0000:00:00
DL9RDZ-12026-09-01 11:51:5963.91546-22.0599681°38km/h14814m5.3m/s-46.5°C1.3%0hPa0V00:00:0000:00:0000:00:00
DL9RDZ-12026-09-01 11:51:4863.91537-22.0619993°33km/h14763m6.2m/s-46.7°C1.3%0hPa0V00:00:0000:00:0000:00:00
DL9RDZ-12026-09-01 11:51:3863.91543-22.0642192°44km/h14711m5.3m/s-46.7°C1.3%0hPa0V00:00:0000:00:0000:00:00
DL9RDZ-12026-09-01 11:51:2863.91549-22.0669996°53km/h14652m4.4m/s-46.9°C1.3%0hPa0V00:00:0000:00:0000:00:00
DL9RDZ-12026-09-01 11:51:1863.91546-22.0699885°51km/h14597m4.8m/s-46.9°C1.3%0hPa0V00:00:0000:00:0000:00:00
DL9RDZ-12026-09-01 11:51:0763.91534-22.0731776°49km/h14544m4.4m/s-47.0°C1.3%0hPa0V00:00:0000:00:0000:00:00
DL9RDZ-12026-09-01 11:50:5663.91502-22.0757872°42km/h14490m5.4m/s-47.0°C1.3%0hPa0V00:00:0000:00:0000:00:00
DL9RDZ-12026-09-01 11:50:4663.91462-22.0781668°38km/h14434m5.8m/s-46.9°C1.3%0hPa0V00:00:0000:00:0000:00:00
DL9RDZ-12026-09-01 11:50:3563.91428-22.0801469°33km/h14380m5.9m/s-46.9°C1.3%0hPa0V00:00:0000:00:0000:00:00
DL9RDZ-12026-09-01 11:50:2563.91404-22.0820676°35km/h14332m4.6m/s-46.8°C1.3%0hPa0V00:00:0000:00:0000:00:00
DL9RDZ-12026-09-01 11:50:1563.91389-22.0840490°35km/h14274m5.5m/s-46.7°C1.3%0hPa0V00:00:0000:00:0000:00:00
DL9RDZ-12026-09-01 11:50:0463.91389-22.08593101°38km/h14224m4.2m/s-46.7°C1.3%0hPa0V00:00:0000:00:0000:00:00
DL9RDZ-12026-09-01 11:49:5463.91404-22.0883899°37km/h14166m5.9m/s-46.6°C1.3%0hPa0V00:00:0000:00:0000:00:00
DL9RDZ-12026-09-01 11:49:4463.91428-22.0905897°35km/h14116m3.9m/s-46.3°C1.3%0hPa0V00:00:0000:00:0000:00:00
DL9RDZ-12026-09-01 11:49:3163.91445-22.09319103°40km/h14055m4.4m/s-46.2°C1.3%0hPa0V00:00:0000:00:0000:00:00
DL9RDZ-12026-09-01 11:49:2163.91457-22.0957696°44km/h14000m4.2m/s-46.2°C1.3%0hPa0V00:00:0000:00:0000:00:00
DL9RDZ-12026-09-01 11:49:1163.91463-22.0981392°44km/h13952m4.8m/s-46.4°C1.3%0hPa0V00:00:0000:00:0000:00:00
DL9RDZ-12026-09-01 11:49:0063.91468-22.1010898°46km/h13892m5.0m/s-46.4°C1.3%0hPa0V00:00:0000:00:0000:00:00
DL9RDZ-12026-09-01 11:48:4863.91466-22.1045582°42km/h13832m4.9m/s-46.2°C1.3%0hPa0V00:00:0000:00:0000:00:00
DL9RDZ-12026-09-01 11:48:3763.91456-22.1072292°37km/h13775m4.0m/s-46.2°C1.3%0hPa0V00:00:0000:00:0000:00:00
DL9RDZ-12026-09-01 11:48:2663.91449-22.1092287°40km/h13723m4.7m/s-46.2°C1.3%0hPa0V00:00:0000:00:0000:00:00
DL9RDZ-12026-09-01 11:48:1663.91441-22.1115681°40km/h13669m4.6m/s-46.2°C1.3%0hPa0V00:00:0000:00:0000:00:00
DL9RDZ-12026-09-01 11:48:0563.91430-22.1139884°46km/h13620m5.5m/s-46.0°C1.3%0hPa0V00:00:0000:00:0000:00:00
DL9RDZ-12026-09-01 11:47:5463.91410-22.1169889°49km/h13565m5.7m/s-46.0°C1.4%0hPa0V00:00:0000:00:0000:00:00
DL9RDZ-12026-09-01 11:47:4563.91413-22.1198388°51km/h13518m4.3m/s-45.9°C1.3%0hPa0V00:00:0000:00:0000:00:00
DL9RDZ-12026-09-01 11:47:3463.91408-22.1227687°49km/h13461m4.0m/s-46.1°C1.4%0hPa0V00:00:0000:00:0000:00:00
DL9RDZ-12026-09-01 11:47:2363.91402-22.1254386°51km/h13410m4.6m/s-46.3°C1.3%0hPa0V00:00:0000:00:0000:00:00
DL9RDZ-12026-09-01 11:47:1363.91386-22.1286483°46km/h13357m4.4m/s-46.5°C1.4%0hPa0V00:00:0000:00:0000:00:00
DL9RDZ-12026-09-01 11:47:0463.91363-22.1314077°53km/h13310m4.9m/s-46.3°C1.4%0hPa0V00:00:0000:00:0000:00:00
DL9RDZ-12026-09-01 11:46:5363.91333-22.1342077°47km/h13263m4.1m/s-46.1°C1.3%0hPa0V00:00:0000:00:0000:00:00
DL9RDZ-12026-09-01 11:46:3163.91321-22.1401486°44km/h13148m4.1m/s-46.2°C1.4%0hPa0V00:00:0000:00:0000:00:00
DL9RDZ-12026-09-01 11:46:2163.91301-22.1428478°47km/h13100m4.5m/s-46.6°C1.4%0hPa0V00:00:0000:00:0000:00:00
DL9RDZ-12026-09-01 11:46:1063.91286-22.1456185°46km/h13052m5.2m/s-46.8°C1.4%0hPa0V00:00:0000:00:0000:00:00
DL9RDZ-12026-09-01 11:46:0063.91275-22.1483389°44km/h12996m4.5m/s-46.9°C1.4%0hPa0V00:00:0000:00:0000:00:00
DL9RDZ-12026-09-01 11:45:5063.91275-22.1510989°44km/h12944m4.4m/s-46.8°C1.4%0hPa0V00:00:0000:00:0000:00:00
DL9RDZ-12026-09-01 11:45:3863.91270-22.1539786°46km/h12891m3.6m/s-47.0°C1.5%0hPa0V00:00:0000:00:0000:00:00
DL9RDZ-12026-09-01 11:45:2863.91258-22.1566484°46km/h12843m5.2m/s-46.8°C1.5%0hPa0V00:00:0000:00:0000:00:00
DL9RDZ-12026-09-01 11:45:1963.91245-22.1593882°47km/h12793m5.7m/s-47.1°C1.4%0hPa0V00:00:0000:00:0000:00:00
DL9RDZ-12026-09-01 11:45:0863.91234-22.1617288°40km/h12741m5.2m/s-47.0°C1.4%0hPa0V00:00:0000:00:0000:00:00
DL9RDZ-12026-09-01 11:44:5663.91238-22.16407101°33km/h12685m3.7m/s-47.4°C1.5%0hPa0V00:00:0000:00:0000:00:00
DL9RDZ-12026-09-01 11:44:4563.91244-22.1662491°37km/h12633m3.7m/s-47.7°C1.5%0hPa0V00:00:0000:00:0000:00:00
DL9RDZ-12026-09-01 11:44:3463.91251-22.1687796°46km/h12583m4.6m/s-47.9°C1.6%0hPa0V00:00:0000:00:0000:00:00
DL9RDZ-12026-09-01 11:44:2363.91264-22.17164100°47km/h12532m5.0m/s-48.0°C1.6%0hPa0V00:00:0000:00:0000:00:00
DL9RDZ-12026-09-01 11:44:1263.91272-22.1745492°49km/h12479m3.5m/s-48.1°C1.6%0hPa0V00:00:0000:00:0000:00:00
DL9RDZ-12026-09-01 11:44:0263.91272-22.1772584°44km/h12429m4.4m/s-48.1°C1.7%0hPa0V00:00:0000:00:0000:00:00
DL9RDZ-12026-09-01 11:43:5163.91267-22.1799489°40km/h12375m5.5m/s-48.3°C1.7%0hPa0V00:00:0000:00:0000:00:00
DL9RDZ-12026-09-01 11:43:4063.91272-22.1825199°40km/h12322m3.4m/s-48.5°C1.8%0hPa0V00:00:0000:00:0000:00:00
DL9RDZ-12026-09-01 11:43:3163.91275-22.18492101°42km/h12275m3.9m/s-48.8°C1.9%0hPa0V00:00:0000:00:0000:00:00
DL9RDZ-12026-09-01 11:43:1963.91284-22.1877394°49km/h12225m4.6m/s-48.9°C1.9%0hPa0V00:00:0000:00:0000:00:00
DL9RDZ-12026-09-01 11:43:0863.91301-22.1907593°51km/h12175m4.2m/s-48.7°C1.8%0hPa0V00:00:0000:00:0000:00:00
DL9RDZ-12026-09-01 11:42:5763.91321-22.19369100°44km/h12123m5.6m/s-49.3°C1.9%0hPa0V00:00:0000:00:0000:00:00
DL9RDZ-12026-09-01 11:42:4763.91338-22.1964598°46km/h12075m4.8m/s-49.3°C1.9%0hPa0V00:00:0000:00:0000:00:00
DL9RDZ-12026-09-01 11:42:3663.91352-22.1994499°44km/h12023m3.5m/s-49.4°C2.0%0hPa0V00:00:0000:00:0000:00:00
DL9RDZ-12026-09-01 11:42:2663.91365-22.20191102°40km/h11976m4.2m/s-49.4°C2.0%0hPa0V00:00:0000:00:0000:00:00
DL9RDZ-12026-09-01 11:42:1563.91381-22.2047898°53km/h11925m4.8m/s-49.2°C2.1%0hPa0V00:00:0000:00:0000:00:00
DL9RDZ-12026-09-01 11:42:0463.91408-22.20778102°57km/h11873m5.2m/s-49.9°C2.3%0hPa0V00:00:0000:00:0000:00:00
DL9RDZ-12026-09-01 11:41:5363.91430-22.2113497°58km/h11820m4.2m/s-50.1°C2.5%0hPa0V00:00:0000:00:0000:00:00
DL9RDZ-12026-09-01 11:41:4263.91436-22.2150694°57km/h11767m5.8m/s-50.5°C2.7%0hPa0V00:00:0000:00:0000:00:00
DL9RDZ-12026-09-01 11:41:3263.91438-22.2183689°60km/h11720m3.9m/s-50.7°C2.9%0hPa0V00:00:0000:00:0000:00:00
DL9RDZ-12026-09-01 11:41:2263.91426-22.2215084°53km/h11674m3.9m/s-50.7°C3.0%0hPa0V00:00:0000:00:0000:00:00
DL9RDZ-12026-09-01 11:41:1163.91407-22.2247680°47km/h11621m5.0m/s-50.7°C3.3%0hPa0V00:00:0000:00:0000:00:00
DL9RDZ-12026-09-01 11:41:0063.91389-22.2276584°40km/h11567m6.7m/s-50.9°C3.5%0hPa0V00:00:0000:00:0000:00:00
DL9RDZ-12026-09-01 11:40:4963.91396-22.2302396°42km/h11510m5.0m/s-50.8°C4.0%0hPa0V00:00:0000:00:0000:00:00
DL9RDZ-12026-09-01 11:40:4063.91407-22.23250106°46km/h11463m5.9m/s-51.3°C4.7%0hPa0V00:00:0000:00:0000:00:00
DL9RDZ-12026-09-01 11:40:2863.91430-22.2352093°42km/h11412m5.4m/s-52.5°C6.0%0hPa0V00:00:0000:00:0000:00:00
DL9RDZ-12026-09-01 11:40:1863.91435-22.2380593°49km/h11360m4.9m/s-53.5°C7.9%0hPa0V00:00:0000:00:0000:00:00
DL9RDZ-12026-09-01 11:40:0663.91446-22.24086100°46km/h11309m4.9m/s-53.5°C9.5%0hPa0V00:00:0000:00:0000:00:00
DL9RDZ-12026-09-01 11:39:5663.91463-22.24368102°55km/h11262m5.0m/s-53.5°C12.1%0hPa0V00:00:0000:00:0000:00:00
DL9RDZ-12026-09-01 11:39:4663.91488-22.24656103°51km/h11213m5.7m/s-53.9°C16.5%0hPa0V00:00:0000:00:0000:00:00
DL9RDZ-12026-09-01 11:39:3663.91509-22.2494798°57km/h11163m5.2m/s-54.6°C22.9%0hPa0V00:00:0000:00:0000:00:00
DL9RDZ-12026-09-01 11:39:2563.91514-22.2532694°55km/h11109m4.2m/s-56.8°C34.3%0hPa0V00:00:0000:00:0000:00:00
DL9RDZ-12026-09-01 11:39:1563.91515-22.2563790°49km/h11064m4.8m/s-57.5°C40.5%0hPa0V00:00:0000:00:0000:00:00
DL9RDZ-12026-09-01 11:39:0563.91511-22.2592889°49km/h11016m5.6m/s-58.2°C44.6%0hPa0V00:00:0000:00:0000:00:00
DL9RDZ-12026-09-01 11:38:5463.91519-22.2623389°47km/h10964m4.0m/s-58.5°C46.2%0hPa0V00:00:0000:00:0000:00:00
DL9RDZ-12026-09-01 11:38:4363.91517-22.2654390°51km/h10911m4.0m/s-58.6°C45.3%0hPa0V00:00:0000:00:0000:00:00
DL9RDZ-12026-09-01 11:38:3363.91524-22.2684494°55km/h10866m4.0m/s-58.3°C45.5%0hPa0V00:00:0000:00:0000:00:00
DL9RDZ-12026-09-01 11:38:2263.91530-22.2718295°51km/h10814m5.5m/s-58.4°C45.9%0hPa0V00:00:0000:00:0000:00:00
DL9RDZ-12026-09-01 11:38:1163.91537-22.2751297°57km/h10762m4.7m/s-58.3°C48.3%0hPa0V00:00:0000:00:0000:00:00
DL9RDZ-12026-09-01 11:38:0063.91556-22.2784998°53km/h10710m4.6m/s-58.2°C50.8%0hPa0V00:00:0000:00:0000:00:00
DL9RDZ-12026-09-01 11:37:5063.91583-22.28161107°55km/h10661m4.6m/s-58.3°C55.8%0hPa0V00:00:0000:00:0000:00:00
DL9RDZ-12026-09-01 11:37:3963.91608-22.28508105°55km/h10610m5.4m/s-58.4°C58.5%0hPa0V00:00:0000:00:0000:00:00
DL9RDZ-12026-09-01 11:37:2963.91637-22.28811102°58km/h10564m4.4m/s-58.5°C61.2%0hPa0V00:00:0000:00:0000:00:00
DL9RDZ-12026-09-01 11:37:1863.91664-22.29161100°57km/h10515m4.3m/s-58.4°C62.3%0hPa0V00:00:0000:00:0000:00:00
DL9RDZ-12026-09-01 11:37:0863.91702-22.29502100°49km/h10466m3.8m/s-58.1°C62.4%0hPa0V00:00:0000:00:0000:00:00
DL9RDZ-12026-09-01 11:36:5663.91741-22.29822104°58km/h10417m5.5m/s-57.9°C63.1%0hPa0V00:00:0000:00:0000:00:00
DL9RDZ-12026-09-01 11:36:4563.91779-22.30167105°57km/h10365m4.2m/s-57.7°C62.9%0hPa0V00:00:0000:00:0000:00:00
DL9RDZ-12026-09-01 11:36:3563.91812-22.30482103°57km/h10318m5.9m/s-57.3°C62.0%0hPa0V00:00:0000:00:0000:00:00
DL9RDZ-12026-09-01 11:36:2563.91845-22.30800108°58km/h10270m4.1m/s-57.1°C64.7%0hPa0V00:00:0000:00:0000:00:00
DL9RDZ-12026-09-01 11:36:1463.91882-22.31156106°62km/h10219m5.5m/s-56.9°C61.1%0hPa0V00:00:0000:00:0000:00:00
DL9RDZ-12026-09-01 11:36:0363.91919-22.31515105°57km/h10167m5.4m/s-56.7°C63.2%0hPa0V00:00:0000:00:0000:00:00
DL9RDZ-12026-09-01 11:35:5363.91960-22.31828106°57km/h10117m4.7m/s-56.4°C62.2%0hPa0V00:00:0000:00:0000:00:00
DL9RDZ-12026-09-01 11:35:4263.92006-22.32174110°57km/h10064m5.8m/s-56.0°C57.8%0hPa0V00:00:0000:00:0000:00:00
DL9RDZ-12026-09-01 11:35:3263.92056-22.32495112°57km/h10018m4.4m/s-55.7°C53.9%0hPa0V00:00:0000:00:0000:00:00
DL9RDZ-12026-09-01 11:35:2263.92094-22.32801108°57km/h9974m4.1m/s-55.3°C55.3%0hPa0V00:00:0000:00:0000:00:00
DL9RDZ-12026-09-01 11:35:1163.92145-22.33133110°55km/h9925m4.8m/s-55.0°C55.6%0hPa0V00:00:0000:00:0000:00:00
DL9RDZ-12026-09-01 11:35:0163.92197-22.33429112°53km/h9878m3.9m/s-54.7°C57.6%0hPa0V00:00:0000:00:0000:00:00
DL9RDZ-12026-09-01 11:34:5063.92252-22.33754111°57km/h9822m4.6m/s-54.2°C56.9%0hPa0V00:00:0000:00:0000:00:00
DL9RDZ-12026-09-01 11:34:4063.92308-22.34064113°55km/h9776m4.1m/s-53.9°C55.1%0hPa0V00:00:0000:00:0000:00:00
DL9RDZ-12026-09-01 11:34:2963.92371-22.34394114°57km/h9723m3.3m/s-53.5°C53.3%0hPa0V00:00:0000:00:0000:00:00
DL9RDZ-12026-09-01 11:34:1963.92431-22.34728114°57km/h9675m4.6m/s-53.1°C51.3%0hPa0V00:00:0000:00:0000:00:00
DL9RDZ-12026-09-01 11:34:0863.92492-22.35052112°53km/h9624m4.4m/s-52.7°C51.2%0hPa0V00:00:0000:00:0000:00:00
DL9RDZ-12026-09-01 11:33:5763.92543-22.35353109°57km/h9581m4.7m/s-52.4°C50.4%0hPa0V00:00:0000:00:0000:00:00
DL9RDZ-12026-09-01 11:33:4663.92595-22.35680111°53km/h9529m3.2m/s-52.1°C52.5%0hPa0V00:00:0000:00:0000:00:00
DL9RDZ-12026-09-01 11:33:3563.92645-22.35999110°55km/h9475m5.2m/s-51.7°C52.5%0hPa0V00:00:0000:00:0000:00:00
DL9RDZ-12026-09-01 11:33:2463.92697-22.36320115°57km/h9423m4.0m/s-51.2°C53.0%0hPa0V00:00:0000:00:0000:00:00
DL9RDZ-12026-09-01 11:33:1363.92751-22.36657114°58km/h9373m4.1m/s-50.9°C53.3%0hPa0V00:00:0000:00:0000:00:00
DL9RDZ-12026-09-01 11:33:0363.92802-22.36963112°57km/h9326m3.3m/s-50.7°C55.0%0hPa0V00:00:0000:00:0000:00:00
DL9RDZ-12026-09-01 11:32:5363.92854-22.37258114°57km/h9280m2.5m/s-50.5°C55.0%0hPa0V00:00:0000:00:0000:00:00
DL9RDZ-12026-09-01 11:32:4263.92905-22.37584107°58km/h9234m3.6m/s-50.2°C55.8%0hPa0V00:00:0000:00:0000:00:00
DL9RDZ-12026-09-01 11:32:3163.92956-22.37925110°57km/h9184m4.1m/s-49.9°C56.8%0hPa0V00:00:0000:00:0000:00:00
DL9RDZ-12026-09-01 11:32:2063.93005-22.38253110°57km/h9134m4.5m/s-49.5°C57.5%0hPa0V00:00:0000:00:0000:00:00
DL9RDZ-12026-09-01 11:32:1063.93054-22.38555108°55km/h9091m5.0m/s-49.1°C57.9%0hPa0V00:00:0000:00:0000:00:00
DL9RDZ-12026-09-01 11:31:5963.93097-22.38879108°55km/h9039m5.2m/s-48.7°C59.9%0hPa0V00:00:0000:00:0000:00:00
DL9RDZ-12026-09-01 11:31:4863.93153-22.39199115°55km/h8978m4.9m/s-48.3°C60.4%0hPa0V00:00:0000:00:0000:00:00
DL9RDZ-12026-09-01 11:31:3763.93201-22.39509105°53km/h8918m3.6m/s-47.8°C62.5%0hPa0V00:00:0000:00:0000:00:00
DL9RDZ-12026-09-01 11:31:2663.93254-22.39825111°51km/h8861m3.6m/s-47.5°C64.8%0hPa0V00:00:0000:00:0000:00:00
DL9RDZ-12026-09-01 11:31:1563.93301-22.40130113°49km/h8808m5.5m/s-47.1°C66.5%0hPa0V00:00:0000:00:0000:00:00
DL9RDZ-12026-09-01 11:31:0563.93349-22.40407112°49km/h8759m5.6m/s-46.6°C67.4%0hPa0V00:00:0000:00:0000:00:00
DL9RDZ-12026-09-01 11:30:5463.93405-22.40701112°51km/h8705m4.5m/s-46.2°C69.0%0hPa0V00:00:0000:00:0000:00:00
DL9RDZ-12026-09-01 11:30:4363.93459-22.40995117°49km/h8648m5.1m/s-45.8°C67.7%0hPa0V00:00:0000:00:0000:00:00
DL9RDZ-12026-09-01 11:30:2863.93538-22.41390112°47km/h8571m5.6m/s-45.1°C68.3%0hPa0V00:00:0000:00:0000:00:00
DL9RDZ-12026-09-01 11:30:1863.93590-22.41664113°51km/h8519m4.8m/s-44.7°C67.5%0hPa0V00:00:0000:00:0000:00:00
DL9RDZ-12026-09-01 11:30:0863.93645-22.41975115°51km/h8461m4.4m/s-44.2°C68.4%0hPa0V00:00:0000:00:0000:00:00
DL9RDZ-12026-09-01 11:29:5763.93689-22.42242118°53km/h8408m3.8m/s-43.9°C69.7%0hPa0V00:00:0000:00:0000:00:00
DL9RDZ-12026-09-01 11:29:4763.93748-22.42535113°53km/h8354m3.8m/s-43.6°C72.1%0hPa0V00:00:0000:00:0000:00:00
DL9RDZ-12026-09-01 11:29:3563.93810-22.42832121°51km/h8297m4.6m/s-43.2°C73.3%0hPa0V00:00:0000:00:0000:00:00
DL9RDZ-12026-09-01 11:29:2563.93860-22.43082115°49km/h8250m4.0m/s-42.8°C72.3%0hPa0V00:00:0000:00:0000:00:00
DL9RDZ-12026-09-01 11:29:0763.93942-22.43549109°47km/h8170m3.3m/s-42.2°C70.9%0hPa0V00:00:0000:00:0000:00:00
DL9RDZ-12026-09-01 11:28:5663.93985-22.43828110°44km/h8117m5.1m/s-41.8°C69.5%0hPa0V00:00:0000:00:0000:00:00
DL9RDZ-12026-09-01 11:28:4563.94022-22.44111112°49km/h8062m6.0m/s-41.4°C72.5%0hPa0V00:00:0000:00:0000:00:00
DL9RDZ-12026-09-01 11:28:3463.94075-22.44391106°51km/h7997m6.2m/s-40.9°C72.8%0hPa0V00:00:0000:00:0000:00:00
DL9RDZ-12026-09-01 11:28:2563.94112-22.44650118°47km/h7937m5.4m/s-40.6°C73.6%0hPa0V00:00:0000:00:0000:00:00
DL9RDZ-12026-09-01 11:28:1363.94153-22.44926112°46km/h7878m5.4m/s-40.0°C73.0%0hPa0V00:00:0000:00:0000:00:00
DL9RDZ-12026-09-01 11:28:0363.94191-22.45177104°53km/h7828m3.1m/s-39.6°C74.4%0hPa0V00:00:0000:00:0000:00:00
DL9RDZ-12026-09-01 11:27:5263.94222-22.45465103°51km/h7766m4.6m/s-39.3°C70.1%0hPa0V00:00:0000:00:0000:00:00
DL9RDZ-12026-09-01 11:27:4163.94249-22.45773100°60km/h7714m3.1m/s-39.0°C71.8%0hPa0V00:00:0000:00:0000:00:00
DL9RDZ-12026-09-01 11:27:3163.94271-22.46040104°42km/h7653m3.2m/s-38.6°C71.3%0hPa0V00:00:0000:00:0000:00:00
DL9RDZ-12026-09-01 11:27:2063.94292-22.46271103°42km/h7588m9.1m/s-38.1°C66.0%0hPa0V00:00:0000:00:0000:00:00
DL9RDZ-12026-09-01 11:27:1063.94318-22.46527101°40km/h7522m6.6m/s-37.5°C67.4%0hPa0V00:00:0000:00:0000:00:00
DL9RDZ-12026-09-01 11:26:5863.94330-22.46757100°37km/h7467m5.6m/s-37.1°C68.9%0hPa0V00:00:0000:00:0000:00:00
DL9RDZ-12026-09-01 11:26:4763.94343-22.4700299°51km/h7412m5.7m/s-36.8°C72.6%0hPa0V00:00:0000:00:0000:00:00
DL9RDZ-12026-09-01 11:26:3663.94343-22.4725890°38km/h7348m7.2m/s-36.2°C66.4%0hPa0V00:00:0000:00:0000:00:00
DL9RDZ-12026-09-01 11:26:2763.94347-22.4749580°33km/h7295m7.1m/s-35.9°C66.8%0hPa0V00:00:0000:00:0000:00:00
DL9RDZ-12026-09-01 11:26:1663.94344-22.4772583°37km/h7233m4.4m/s-35.3°C69.2%0hPa0V00:00:0000:00:0000:00:00
DL9RDZ-12026-09-01 11:26:0563.94358-22.4796484°40km/h7165m7.0m/s-34.9°C68.7%0hPa0V00:00:0000:00:0000:00:00
DL9RDZ-12026-09-01 11:25:5463.94370-22.4817696°35km/h7108m7.6m/s-34.4°C66.4%0hPa0V00:00:0000:00:0000:00:00
DL9RDZ-12026-09-01 11:25:4363.94376-22.4843785°47km/h7051m3.9m/s-33.8°C66.3%0hPa0V00:00:0000:00:0000:00:00
DL9RDZ-12026-09-01 11:25:3263.94392-22.48668104°49km/h6992m5.2m/s-33.4°C67.3%0hPa0V00:00:0000:00:0000:00:00
DL9RDZ-12026-09-01 11:25:2263.94408-22.48910107°44km/h6927m5.1m/s-32.8°C67.9%0hPa0V00:00:0000:00:0000:00:00
DL9RDZ-12026-09-01 11:25:1063.94430-22.49162111°29km/h6872m6.4m/s-32.3°C68.7%0hPa0V00:00:0000:00:0000:00:00
DL9RDZ-12026-09-01 11:24:5963.94446-22.49393102°35km/h6800m7.2m/s-31.8°C67.8%0hPa0V00:00:0000:00:0000:00:00
DL9RDZ-12026-09-01 11:24:4863.94465-22.49654118°40km/h6735m3.9m/s-31.5°C69.1%0hPa0V00:00:0000:00:0000:00:00
DL9RDZ-12026-09-01 11:24:3863.94478-22.4983488°37km/h6685m5.4m/s-31.1°C72.0%0hPa0V00:00:0000:00:0000:00:00
DL9RDZ-12026-09-01 11:24:2863.94484-22.5007397°37km/h6631m10.6m/s-30.8°C73.5%0hPa0V00:00:0000:00:0000:00:00
DL9RDZ-12026-09-01 11:24:1863.94510-22.50267103°37km/h6575m4.4m/s-30.2°C74.0%0hPa0V00:00:0000:00:0000:00:00
DL9RDZ-12026-09-01 11:24:0863.94528-22.5054782°49km/h6515m5.3m/s-29.7°C72.8%0hPa0V00:00:0000:00:0000:00:00
DL9RDZ-12026-09-01 11:23:5763.94535-22.50746109°46km/h6443m4.8m/s-29.2°C71.1%0hPa0V00:00:0000:00:0000:00:00
DL9RDZ-12026-09-01 11:23:4763.94549-22.51048105°46km/h6388m4.5m/s-28.7°C73.2%0hPa0V00:00:0000:00:0000:00:00
DL9RDZ-12026-09-01 11:23:2163.94575-22.5156984°33km/h6261m7.0m/s-27.9°C70.8%0hPa0V00:00:0000:00:0000:00:00
DL9RDZ-12026-09-01 11:23:1263.94596-22.51793107°53km/h6190m5.5m/s-27.5°C70.7%0hPa0V00:00:0000:00:0000:00:00
DL9RDZ-12026-09-01 11:23:0263.94600-22.5207484°51km/h6136m2.1m/s-27.1°C72.0%0hPa0V00:00:0000:00:0000:00:00
DL9RDZ-12026-09-01 11:22:5163.94619-22.5233294°42km/h6078m7.2m/s-26.7°C73.1%0hPa0V00:00:0000:00:0000:00:00
DL9RDZ-12026-09-01 11:22:4063.94618-22.5259595°44km/h6016m4.6m/s-26.1°C73.2%0hPa0V00:00:0000:00:0000:00:00
DL9RDZ-12026-09-01 11:22:3063.94630-22.5283390°49km/h5954m4.0m/s-25.7°C71.6%0hPa0V00:00:0000:00:0000:00:00
DL9RDZ-12026-09-01 11:22:2063.94630-22.5307582°44km/h5893m5.5m/s-25.2°C69.0%0hPa0V00:00:0000:00:0000:00:00
DL9RDZ-12026-09-01 11:22:0963.94646-22.53280100°33km/h5830m4.6m/s-24.9°C69.5%0hPa0V00:00:0000:00:0000:00:00
DL9RDZ-12026-09-01 11:21:5863.94678-22.53517111°31km/h5776m5.1m/s-24.4°C70.6%0hPa0V00:00:0000:00:0000:00:00
DL9RDZ-12026-09-01 11:21:4763.94701-22.53744111°37km/h5713m6.3m/s-24.2°C74.0%0hPa0V00:00:0000:00:0000:00:00
DL9RDZ-12026-09-01 11:21:3763.94712-22.53938102°37km/h5658m4.4m/s-23.8°C74.3%0hPa0V00:00:0000:00:0000:00:00
DL9RDZ-12026-09-01 11:21:2663.94730-22.54137105°42km/h5594m6.3m/s-23.4°C73.1%0hPa0V00:00:0000:00:0000:00:00
DL9RDZ-12026-09-01 11:21:0563.94767-22.54543134°35km/h5480m6.2m/s-22.5°C69.0%0hPa0V00:00:0000:00:0000:00:00
DL9RDZ-12026-09-01 11:20:5563.94818-22.54723122°35km/h5422m6.9m/s-22.0°C67.1%0hPa0V00:00:0000:00:0000:00:00
DL9RDZ-12026-09-01 11:20:4463.94857-22.54904112°40km/h5346m8.0m/s-21.9°C68.8%0hPa0V00:00:0000:00:0000:00:00
DL9RDZ-12026-09-01 11:20:3363.94914-22.55073135°16km/h5277m6.5m/s-21.4°C64.3%0hPa0V00:00:0000:00:0000:00:00
DL9RDZ-12026-09-01 11:20:2263.94956-22.55174151°27km/h5218m4.3m/s-21.0°C63.2%0hPa0V00:00:0000:00:0000:00:00
DL9RDZ-12026-09-01 11:20:1263.95005-22.55301118°24km/h5154m7.0m/s-20.7°C62.1%0hPa0V00:00:0000:00:0000:00:00
DL9RDZ-12026-09-01 11:20:0063.95051-22.55428134°29km/h5092m6.0m/s-20.3°C60.5%0hPa0V00:00:0000:00:0000:00:00
DL9RDZ-12026-09-01 11:19:5063.95096-22.55575112°24km/h5039m3.7m/s-19.9°C60.1%0hPa0V00:00:0000:00:0000:00:00
DL9RDZ-12026-09-01 11:19:3963.95142-22.55708131°22km/h4977m6.5m/s-19.5°C59.0%0hPa0V00:00:0000:00:0000:00:00
DL9RDZ-12026-09-01 11:19:2963.95198-22.55778162°16km/h4925m7.8m/s-19.3°C58.9%0hPa0V00:00:0000:00:0000:00:00
DL9RDZ-12026-09-01 11:19:1863.95242-22.55896137°33km/h4866m8.1m/s-19.0°C59.2%0hPa0V00:00:0000:00:0000:00:00
DL9RDZ-12026-09-01 11:19:0863.95299-22.56020158°26km/h4804m7.1m/s-18.6°C59.2%0hPa0V00:00:0000:00:0000:00:00
DL9RDZ-12026-09-01 11:17:4463.95627-22.56918117°24km/h4340m4.4m/s-16.2°C63.4%0hPa0V00:00:0000:00:0000:00:00
DL9RDZ-12026-09-01 11:17:3463.95680-22.57016161°31km/h4283m3.0m/s-16.0°C64.8%0hPa0V00:00:0000:00:0000:00:00
DL9RDZ-12026-09-01 11:17:2563.95721-22.57062150°22km/h4228m8.9m/s-15.9°C64.3%0hPa0V00:00:0000:00:0000:00:00
DL9RDZ-12026-09-01 11:17:1463.95756-22.57151125°15km/h4160m7.0m/s-15.5°C64.9%0hPa0V00:00:0000:00:0000:00:00
DL9RDZ-12026-09-01 11:16:5863.95817-22.57337147°22km/h4075m3.3m/s-15.2°C65.5%0hPa0V00:00:0000:00:0000:00:00
DL9RDZ-12026-09-01 11:16:3663.95889-22.57519125°31km/h3963m5.2m/s-14.7°C65.8%0hPa0V00:00:0000:00:0000:00:00
DL9RDZ-12026-09-01 11:16:2663.95909-22.57657124°15km/h3909m4.0m/s-14.4°C66.0%0hPa0V00:00:0000:00:0000:00:00
DL9RDZ-12026-09-01 11:16:0463.95971-22.57858115°20km/h3792m4.9m/s-13.7°C63.2%0hPa0V00:00:0000:00:0000:00:00
DL9RDZ-12026-09-01 11:15:5363.95996-22.57935155°26km/h3732m6.3m/s-13.4°C66.3%0hPa0V00:00:0000:00:0000:00:00
DL9RDZ-12026-09-01 11:15:4263.96030-22.58028151°26km/h3674m6.9m/s-13.0°C64.4%0hPa0V00:00:0000:00:0000:00:00
DL9RDZ-12026-09-01 11:15:3263.96071-22.58124135°22km/h3609m5.5m/s-12.6°C63.9%0hPa0V00:00:0000:00:0000:00:00
DL9RDZ-12026-09-01 11:15:2163.96095-22.58234108°29km/h3552m7.3m/s-12.4°C64.3%0hPa0V00:00:0000:00:0000:00:00
DL9RDZ-12026-09-01 11:15:1063.96113-22.58330117°26km/h3499m6.2m/s-12.1°C63.9%0hPa0V00:00:0000:00:0000:00:00
DL9RDZ-12026-09-01 11:15:0063.96139-22.58425100°18km/h3441m4.1m/s-11.8°C64.2%0hPa0V00:00:0000:00:0000:00:00
DL9RDZ-12026-09-01 11:14:4863.96145-22.58496143°20km/h3384m5.7m/s-11.5°C62.3%0hPa0V00:00:0000:00:0000:00:00
DL9RDZ-12026-09-01 11:14:3963.96179-22.58586137°18km/h3325m5.0m/s-11.4°C59.9%0hPa0V00:00:0000:00:0000:00:00
DL9RDZ-12026-09-01 11:14:2763.96230-22.58706144°16km/h3265m4.8m/s-11.4°C63.7%0hPa0V00:00:0000:00:0000:00:00
DL9RDZ-12026-09-01 11:14:1763.96243-22.58789130°15km/h3209m4.6m/s-11.0°C65.6%0hPa0V00:00:0000:00:0000:00:00
DL9RDZ-12026-09-01 11:14:0763.96278-22.58903123°20km/h3146m5.9m/s-10.5°C65.0%0hPa0V00:00:0000:00:0000:00:00
DL9RDZ-12026-09-01 11:13:1963.96388-22.5928681°13km/h2878m5.3m/s-8.5°C49.8%0hPa0V00:00:0000:00:0000:00:00
DL9RDZ-12026-09-01 11:13:0863.96424-22.59358150°11km/h2811m6.2m/s-8.1°C49.6%0hPa0V00:00:0000:00:0000:00:00
DL9RDZ-12026-09-01 11:12:5763.96453-22.59446137°24km/h2749m5.7m/s-7.5°C41.4%0hPa0V00:00:0000:00:0000:00:00
DL9RDZ-12026-09-01 11:12:4763.96478-22.5953396°11km/h2695m2.5m/s-7.0°C42.0%0hPa0V00:00:0000:00:0000:00:00
DL9RDZ-12026-09-01 11:12:3763.96493-22.59601166°18km/h2636m4.6m/s-6.6°C40.4%0hPa0V00:00:0000:00:0000:00:00
DL9RDZ-12026-09-01 11:12:2763.96514-22.59660149°15km/h2583m5.6m/s-6.1°C38.6%0hPa0V00:00:0000:00:0000:00:00
DL9RDZ-12026-09-01 11:12:1663.96553-22.59689137°18km/h2519m4.9m/s-5.6°C36.6%0hPa0V00:00:0000:00:0000:00:00
DL9RDZ-12026-09-01 11:12:0563.96571-22.59768146°9km/h2459m4.9m/s-5.1°C33.5%0hPa0V00:00:0000:00:0000:00:00
DL9RDZ-12026-09-01 11:11:5463.96591-22.59801125°15km/h2399m4.0m/s-4.7°C33.8%0hPa0V00:00:0000:00:0000:00:00
DL9RDZ-12026-09-01 11:11:4363.96618-22.59869107°24km/h2336m5.0m/s-4.3°C33.7%0hPa0V00:00:0000:00:0000:00:00
DL9RDZ-12026-09-01 11:11:3263.96659-22.59968174°9km/h2281m5.1m/s-4.2°C43.3%0hPa0V00:00:0000:00:0000:00:00
DL9RDZ-12026-09-01 11:11:2163.96691-22.60002195°7km/h2224m7.4m/s-3.6°C35.2%0hPa0V00:00:0000:00:0000:00:00
DL9RDZ-12026-09-01 11:11:1163.96709-22.60048120°24km/h2162m6.6m/s-3.2°C32.6%0hPa0V00:00:0000:00:0000:00:00
DL9RDZ-12026-09-01 11:11:0063.96735-22.6012482°15km/h2100m5.9m/s-2.7°C29.6%0hPa0V00:00:0000:00:0000:00:00
DL9RDZ-12026-09-01 11:10:4963.96746-22.6017668°4km/h2046m5.0m/s-2.6°C25.7%0hPa0V00:00:0000:00:0000:00:00
DL9RDZ-12026-09-01 11:10:3863.96759-22.60169176°9km/h1991m6.7m/s-2.3°C30.5%0hPa0V00:00:0000:00:0000:00:00
DL9RDZ-12026-09-01 11:10:2763.96789-22.60220154°18km/h1936m5.2m/s-2.0°C32.7%0hPa0V00:00:0000:00:0000:00:00
DL9RDZ-12026-09-01 11:10:0463.96852-22.60325102°15km/h1815m6.0m/s-1.9°C63.1%0hPa0V00:00:0000:00:0000:00:00
DL9RDZ-12026-09-01 11:09:5463.96859-22.6037174°7km/h1762m3.8m/s-1.6°C70.9%0hPa0V00:00:0000:00:0000:00:00
DL9RDZ-12026-09-01 11:09:4463.96858-22.60395168°4km/h1707m3.8m/s-1.1°C71.4%0hPa0V00:00:0000:00:0000:00:00
DL9RDZ-12026-09-01 11:09:3363.96844-22.6041455°13km/h1654m6.0m/s-0.9°C73.3%0hPa0V00:00:0000:00:0000:00:00
DL9RDZ-12026-09-01 11:09:2463.96835-22.60419166°5km/h1597m4.7m/s-0.6°C74.7%0hPa0V00:00:0000:00:0000:00:00
DL9RDZ-12026-09-01 11:09:1363.96831-22.60440305°4km/h1543m5.9m/s-0.2°C69.8%0hPa0V00:00:0000:00:0000:00:00
DL9RDZ-12026-09-01 11:09:0463.96814-22.6046234°15km/h1490m5.4m/s0.3°C65.5%0hPa0V00:00:0000:00:0000:00:00
DL9RDZ-12026-09-01 11:08:5263.96801-22.6051356°15km/h1429m5.2m/s0.6°C62.4%0hPa0V00:00:0000:00:0000:00:00
DL9RDZ-12026-09-01 11:08:4263.96799-22.605510km/h1371m5.1m/s0.9°C64.3%0hPa0V00:00:0000:00:0000:00:00
DL9RDZ-12026-09-01 11:08:3063.96786-22.6057685°13km/h1315m6.6m/s1.2°C66.0%0hPa0V00:00:0000:00:0000:00:00
DL9RDZ-12026-09-01 11:08:1963.96779-22.6060091°11km/h1252m5.2m/s1.5°C70.6%0hPa0V00:00:0000:00:0000:00:00
DL9RDZ-12026-09-01 11:08:0863.96775-22.6066564°13km/h1191m5.0m/s1.9°C69.2%0hPa0V00:00:0000:00:0000:00:00
DL9RDZ-12026-09-01 11:07:4763.96798-22.60788115°15km/h1069m4.9m/s2.6°C65.6%0hPa0V00:00:0000:00:0000:00:00
DL9RDZ-12026-09-01 11:07:3763.96808-22.60846119°11km/h1014m4.9m/s3.0°C0%0hPa0V00:00:0000:00:0000:00:00
DL9RDZ-12026-09-01 11:07:2763.96813-22.60894113°13km/h960m7.1m/s3.5°C0%0hPa0V00:00:0000:00:0000:00:00
DL9RDZ-12026-09-01 11:07:1763.96818-22.60923105°5km/h905m5.0m/s3.8°C0%0hPa0V00:00:0000:00:0000:00:00
DL9RDZ-12026-09-01 11:07:0663.96817-22.6098780°4km/h844m4.3m/s3.9°C0%0hPa0V00:00:0000:00:0000:00:00
DL9RDZ-12026-09-01 11:06:5563.96810-22.6106175°15km/h785m6.0m/s0°C0%0hPa0V00:00:0000:00:0000:00:00


GPX KML Map

© wettersonde.net (DO2JMG) - 2026  -  -